Bareilly — A8KG7 — position and weather

sailwx.info

Track history (hours):
 
Tides and Currents Weather Stations Pressure Air Temp Water Temp Dewpoint Dewpoint Depression Visibility Wind Speed Wind Dir Waves Ship Positions

Bareilly

Last reported at 2014-Dec-14 15:05 UTC. Time now 2014-Dec-20 12:57 UTC.
Position N 41°22' E 029°14'.

Length 243 m; draft 13 m.

Type: Tanker. MMSI: 636013054.

Date/timePositionNaut miles runAvg speedWind from/ knotsBaromVisibWave heightAir tempDewpointWater temp
2014-Dec-14 15:05N 41°22' E 029°14'611.8
2014-Dec-14 14:33N 41°16' E 029°11'  
2014-Dec-09 08:21N 39°38' E 025°45'9511.7
2014-Dec-09 00:12N 38°03' E 025°39'1113.2
2014-Dec-08 23:21N 37°53' E 025°47'1312.0
2014-Dec-08 22:16N 37°41' E 025°51'913.0
2014-Dec-08 21:33N 37°32' E 025°52'1312.6
2014-Dec-08 20:33N 37°20' E 025°58'1212.3
2014-Dec-08 19:33N 37°09' E 026°05'1212.3
2014-Dec-08 18:33N 36°58' E 026°12'1212.1
2014-Dec-08 17:33N 36°49' E 026°22'1212.2
2014-Dec-08 16:33N 36°40' E 026°33'1312.4
2014-Dec-08 15:33N 36°31' E 026°43'1212.4
2014-Dec-08 14:33N 36°22' E 026°53'28712.5
2014-Dec-07 15:33N 34°31' E 032°18'1312.4
2014-Dec-07 14:32N 34°27' E 032°33'1212.5
2014-Dec-07 13:33N 34°23' E 032°47'1212.0
2014-Dec-07 12:33N 34°21' E 033°01'1312.8
2014-Dec-07 11:33N 34°30' E 033°12'3 3.1
2014-Dec-07 10:33N 34°32' E 033°16'0 0.5
2014-Dec-07 09:33N 34°32' E 033°16'1 1.2
2014-Dec-07 08:33N 34°31' E 033°16'1 1.4
2014-Dec-07 07:34N 34°29' E 033°17'4 3.6
2014-Dec-07 06:33N 34°26' E 033°19'7 0.6
2014-Dec-06 19:33N 34°23' E 033°27'1 0.6
2014-Dec-06 17:33N 34°24' E 033°27'1 0.6
2014-Dec-06 16:33N 34°25' E 033°27'1 0.6
2014-Dec-06 15:33N 34°25' E 033°28'0 0.5
2014-Dec-06 14:33N 34°26' E 033°28'0 0.4
2014-Dec-06 13:34N 34°26' E 033°28'0 0.2
2014-Dec-06 12:34N 34°26' E 033°28'0 0.1
2014-Dec-06 11:33N 34°26' E 033°28'0 0.0
2014-Dec-06 10:33N 34°26' E 033°28'1 0.5
2014-Dec-06 09:30N 34°27' E 033°27'3 3.5
2014-Dec-06 08:33N 34°28' E 033°24'5 5.1
2014-Dec-06 07:34N 34°29' E 033°18'6 5.6
2014-Dec-06 06:33N 34°31' E 033°12'1 1.2
2014-Dec-06 05:33N 34°30' E 033°13'1 1.3
2014-Dec-06 04:34N 34°30' E 033°14'1 1.4
2014-Dec-06 03:33N 34°31' E 033°16'5 4.6
2014-Dec-06 02:33N 34°26' E 033°15'1210.8
2014-Dec-06 01:25N 34°14' E 033°14'12 0.6
2014-Dec-05 06:29N 34°25' E 033°13'2 1.7
2014-Dec-05 05:26N 34°27' E 033°12'2 1.9
2014-Dec-05 04:32N 34°26' E 033°14'2 1.9
2014-Dec-05 03:32N 34°26' E 033°16'2 1.8
2014-Dec-05 02:26N 34°26' E 033°18'2 1.7
2014-Dec-05 01:29N 34°25' E 033°20'2 1.7
2014-Dec-05 00:29N 34°25' E 033°22'2 1.8
2014-Dec-04 23:32N 34°25' E 033°24'2 1.7
2014-Dec-04 22:29N 34°25' E 033°26'2 1.7
2014-Dec-04 21:32N 34°25' E 033°28'2 1.8
2014-Dec-04 20:29N 34°24' E 033°30'2 2.0
2014-Dec-04 19:32N 34°22' E 033°32'2 2.1
2014-Dec-04 18:32N 34°21' E 033°34'  
Track history (hours):
 
Tides and Currents Weather Stations Pressure Air Temp Water Temp Dewpoint Dewpoint Depression Visibility Wind Speed Wind Dir Waves Ship Positions

Bareilly

Last reported at 2014-Dec-14 15:05 UTC. Time now 2014-Dec-20 12:57 UTC.
Position N 41°22' E 029°14'.

Length 243 m; draft 13 m.

Type: Tanker. MMSI: 636013054.

Date/timePositionNaut miles runAvg speedWind from/ knotsBaromVisibWave heightAir tempDewpointWater temp
2014-Dec-14 15:05N 41°22' E 029°14'611.8
2014-Dec-14 14:33N 41°16' E 029°11'  
2014-Dec-09 08:21N 39°38' E 025°45'9511.7
2014-Dec-09 00:12N 38°03' E 025°39'1113.2
2014-Dec-08 23:21N 37°53' E 025°47'1312.0
2014-Dec-08 22:16N 37°41' E 025°51'913.0
2014-Dec-08 21:33N 37°32' E 025°52'1312.6
2014-Dec-08 20:33N 37°20' E 025°58'1212.3
2014-Dec-08 19:33N 37°09' E 026°05'1212.3
2014-Dec-08 18:33N 36°58' E 026°12'1212.1
2014-Dec-08 17:33N 36°49' E 026°22'1212.2
2014-Dec-08 16:33N 36°40' E 026°33'1312.4
2014-Dec-08 15:33N 36°31' E 026°43'1212.4
2014-Dec-08 14:33N 36°22' E 026°53'28712.5
2014-Dec-07 15:33N 34°31' E 032°18'1312.4
2014-Dec-07 14:32N 34°27' E 032°33'1212.5
2014-Dec-07 13:33N 34°23' E 032°47'1212.0
2014-Dec-07 12:33N 34°21' E 033°01'1312.8
2014-Dec-07 11:33N 34°30' E 033°12'3 3.1
2014-Dec-07 10:33N 34°32' E 033°16'0 0.5
2014-Dec-07 09:33N 34°32' E 033°16'1 1.2
2014-Dec-07 08:33N 34°31' E 033°16'1 1.4
2014-Dec-07 07:34N 34°29' E 033°17'4 3.6
2014-Dec-07 06:33N 34°26' E 033°19'7 0.6
2014-Dec-06 19:33N 34°23' E 033°27'1 0.6
2014-Dec-06 17:33N 34°24' E 033°27'1 0.6
2014-Dec-06 16:33N 34°25' E 033°27'1 0.6
2014-Dec-06 15:33N 34°25' E 033°28'0 0.5
2014-Dec-06 14:33N 34°26' E 033°28'0 0.4
2014-Dec-06 13:34N 34°26' E 033°28'0 0.2
2014-Dec-06 12:34N 34°26' E 033°28'0 0.1
2014-Dec-06 11:33N 34°26' E 033°28'0 0.0
2014-Dec-06 10:33N 34°26' E 033°28'1 0.5
2014-Dec-06 09:30N 34°27' E 033°27'3 3.5
2014-Dec-06 08:33N 34°28' E 033°24'5 5.1
2014-Dec-06 07:34N 34°29' E 033°18'6 5.6
2014-Dec-06 06:33N 34°31' E 033°12'1 1.2
2014-Dec-06 05:33N 34°30' E 033°13'1 1.3
2014-Dec-06 04:34N 34°30' E 033°14'1 1.4
2014-Dec-06 03:33N 34°31' E 033°16'5 4.6
2014-Dec-06 02:33N 34°26' E 033°15'1210.8
2014-Dec-06 01:25N 34°14' E 033°14'12 0.6
2014-Dec-05 06:29N 34°25' E 033°13'2 1.7
2014-Dec-05 05:26N 34°27' E 033°12'2 1.9
2014-Dec-05 04:32N 34°26' E 033°14'2 1.9
2014-Dec-05 03:32N 34°26' E 033°16'2 1.8
2014-Dec-05 02:26N 34°26' E 033°18'2 1.7
2014-Dec-05 01:29N 34°25' E 033°20'2 1.7
2014-Dec-05 00:29N 34°25' E 033°22'2 1.8
2014-Dec-04 23:32N 34°25' E 033°24'2 1.7
2014-Dec-04 22:29N 34°25' E 033°26'2 1.7
2014-Dec-04 21:32N 34°25' E 033°28'2 1.8
2014-Dec-04 20:29N 34°24' E 033°30'2 2.0
2014-Dec-04 19:32N 34°22' E 033°32'2 2.1
2014-Dec-04 18:32N 34°21' E 033°34'  

Dump ship's entire track history